Terminal Aerodrome Forecast
Issued by NWS Grand Rapids, MI

Home | Current Version | Previous Version | Text Only | Print | Product List | Glossary On
Versions: 1 2 3 4 5 6 7 8 9 10 11 12 13 14 15 16 17 18 19
000
FTUS43 KGRR 181740
TAFGRR
TAF
KGRR 181740Z 1818/1918 27015G22KT P6SM SCT025 OVC040
      TEMPO 1818/1820 BKN025
     FM182200 27012G18KT P6SM BKN040
     FM190200 25005KT P6SM BKN040
     FM191200 26005KT 5SM BR OVC015
     FM191600 30006KT P6SM BKN100=

USA.gov is the U.S. government's official web portal to all federal, state and local government web resources and services.